0.000 kWh

EHAM AMSTERDAM/SCHIPHOL NLD -3 m.
METAR EHAM 160755Z 16009KT 0900 R18C/P2000N R27/1400D R18R/1500D
R06/1700D BCFG BR FEW001 OVC003 01/00 Q1008 TEMPO 0600 BECMG OVC001

EHAM AAA AMSTERDAM/SCHIPHOL NLD -3 m.
TAF AMD EHAM 160705Z 1607/1712 16012KT 1500 BR OVC002
BECMG 1607/1608 0800 FG OVC001
TEMPO 1607/1616 1500 OVC002
BECMG 1609/1612 20008KT
BECMG 1706/1709 3000 -RADZ OVC007
BECMG 1710/1712 27012KT 6000 NSW OVC012